sensor_id;sensor_type;location;lat;lon;timestamp;pressure;altitude;pressure_sealevel;temperature;humidity
64967;BME280;51710;38.732;-121.358;2023-05-07T00:02:11;101314.88;;;16.38;84.89
64967;BME280;51710;38.732;-121.358;2023-05-07T00:04:37;101316.19;;;16.42;84.23
64967;BME280;51710;38.732;-121.358;2023-05-07T00:07:04;101325.44;;;16.47;84.13
64967;BME280;51710;38.732;-121.358;2023-05-07T00:09:31;101316.50;;;16.47;83.44
64967;BME280;51710;38.732;-121.358;2023-05-07T00:11:57;101318.47;;;16.53;83.44
64967;BME280;51710;38.732;-121.358;2023-05-07T00:14:23;101315.25;;;16.57;83.53
64967;BME280;51710;38.732;-121.358;2023-05-07T00:16:50;101317.13;;;16.71;83.04
64967;BME280;51710;38.732;-121.358;2023-05-07T00:19:16;101317.53;;;16.83;82.36
64967;BME280;51710;38.732;-121.358;2023-05-07T00:21:42;101314.69;;;16.99;80.23
64967;BME280;51710;38.732;-121.358;2023-05-07T00:24:08;101311.44;;;17.18;73.54
64967;BME280;51710;38.732;-121.358;2023-05-07T00:26:34;101315.13;;;17.32;73.36
64967;BME280;51710;38.732;-121.358;2023-05-07T00:29:01;101306.97;;;17.40;69.27
64967;BME280;51710;38.732;-121.358;2023-05-07T00:31:27;101305.38;;;17.45;68.90
64967;BME280;51710;38.732;-121.358;2023-05-07T00:33:53;101306.91;;;17.48;66.75
64967;BME280;51710;38.732;-121.358;2023-05-07T00:36:19;101307.25;;;17.45;65.93
64967;BME280;51710;38.732;-121.358;2023-05-07T00:38:45;101302.69;;;17.45;66.12
64967;BME280;51710;38.732;-121.358;2023-05-07T00:41:15;101297.63;;;17.50;66.41
64967;BME280;51710;38.732;-121.358;2023-05-07T00:43:41;101295.81;;;17.57;67.45
64967;BME280;51710;38.732;-121.358;2023-05-07T00:46:08;101286.53;;;17.60;66.69
64967;BME280;51710;38.732;-121.358;2023-05-07T00:48:34;101285.50;;;17.61;65.12
64967;BME280;51710;38.732;-121.358;2023-05-07T00:51:00;101294.81;;;17.58;64.20
64967;BME280;51710;38.732;-121.358;2023-05-07T00:53:26;101291.09;;;17.59;64.44
64967;BME280;51710;38.732;-121.358;2023-05-07T00:55:53;101286.34;;;17.61;65.57
64967;BME280;51710;38.732;-121.358;2023-05-07T00:58:20;101298.97;;;17.61;64.37
64967;BME280;51710;38.732;-121.358;2023-05-07T01:00:47;101299.81;;;17.61;64.85
64967;BME280;51710;38.732;-121.358;2023-05-07T01:03:13;101312.63;;;17.59;63.05
64967;BME280;51710;38.732;-121.358;2023-05-07T01:05:40;101304.28;;;17.54;62.58
64967;BME280;51710;38.732;-121.358;2023-05-07T01:08:07;101309.28;;;17.57;62.43
64967;BME280;51710;38.732;-121.358;2023-05-07T01:10:33;101308.47;;;17.57;63.84
64967;BME280;51710;38.732;-121.358;2023-05-07T01:12:59;101302.25;;;17.56;62.67
64967;BME280;51710;38.732;-121.358;2023-05-07T01:15:27;101307.63;;;17.56;63.23
64967;BME280;51710;38.732;-121.358;2023-05-07T01:17:53;101304.09;;;17.56;63.20
64967;BME280;51710;38.732;-121.358;2023-05-07T01:20:19;101305.97;;;17.55;63.00
64967;BME280;51710;38.732;-121.358;2023-05-07T01:22:46;101315.25;;;17.53;61.11
64967;BME280;51710;38.732;-121.358;2023-05-07T01:25:12;101318.03;;;17.45;61.39
64967;BME280;51710;38.732;-121.358;2023-05-07T01:27:39;101321.91;;;17.42;62.38
64967;BME280;51710;38.732;-121.358;2023-05-07T01:30:06;101320.25;;;17.41;62.22
64967;BME280;51710;38.732;-121.358;2023-05-07T01:32:40;101321.06;;;17.42;61.42
64967;BME280;51710;38.732;-121.358;2023-05-07T01:35:11;101317.56;;;17.41;60.49
64967;BME280;51710;38.732;-121.358;2023-05-07T01:37:39;101313.94;;;17.34;61.05
64967;BME280;51710;38.732;-121.358;2023-05-07T01:40:06;101318.03;;;17.30;60.93
64967;BME280;51710;38.732;-121.358;2023-05-07T01:42:33;101322.75;;;17.28;60.51
64967;BME280;51710;38.732;-121.358;2023-05-07T01:44:59;101322.94;;;17.27;60.12
64967;BME280;51710;38.732;-121.358;2023-05-07T01:47:26;101326.22;;;17.22;59.91
64967;BME280;51710;38.732;-121.358;2023-05-07T01:49:53;101326.94;;;17.16;60.09
64967;BME280;51710;38.732;-121.358;2023-05-07T01:52:19;101329.81;;;17.15;61.75
64967;BME280;51710;38.732;-121.358;2023-05-07T01:54:46;101333.25;;;17.23;62.20
64967;BME280;51710;38.732;-121.358;2023-05-07T01:57:12;101340.66;;;17.21;61.94
64967;BME280;51710;38.732;-121.358;2023-05-07T01:59:38;101334.34;;;17.14;62.30
64967;BME280;51710;38.732;-121.358;2023-05-07T02:02:04;101340.50;;;17.08;62.21
64967;BME280;51710;38.732;-121.358;2023-05-07T02:04:30;101343.63;;;16.97;62.85
64967;BME280;51710;38.732;-121.358;2023-05-07T02:06:57;101346.88;;;16.93;63.37
64967;BME280;51710;38.732;-121.358;2023-05-07T02:09:23;101344.72;;;16.88;63.86
64967;BME280;51710;38.732;-121.358;2023-05-07T02:11:49;101341.38;;;16.86;63.80
64967;BME280;51710;38.732;-121.358;2023-05-07T02:14:16;101343.78;;;16.81;63.66
64967;BME280;51710;38.732;-121.358;2023-05-07T02:16:42;101351.25;;;16.71;62.94
64967;BME280;51710;38.732;-121.358;2023-05-07T02:19:08;101346.31;;;16.60;62.65
64967;BME280;51710;38.732;-121.358;2023-05-07T02:21:34;101345.72;;;16.50;62.31
64967;BME280;51710;38.732;-121.358;2023-05-07T02:24:01;101350.28;;;16.41;63.08
64967;BME280;51710;38.732;-121.358;2023-05-07T02:26:27;101362.78;;;16.34;63.56
64967;BME280;51710;38.732;-121.358;2023-05-07T02:28:53;101348.84;;;16.31;63.89
64967;BME280;51710;38.732;-121.358;2023-05-07T02:31:19;101364.00;;;16.32;63.63
64967;BME280;51710;38.732;-121.358;2023-05-07T02:33:46;101351.25;;;16.26;63.80
64967;BME280;51710;38.732;-121.358;2023-05-07T02:36:12;101358.66;;;16.24;63.43
64967;BME280;51710;38.732;-121.358;2023-05-07T02:38:39;101353.66;;;16.21;64.17
64967;BME280;51710;38.732;-121.358;2023-05-07T02:41:05;101360.84;;;16.20;63.93
64967;BME280;51710;38.732;-121.358;2023-05-07T02:43:31;101359.41;;;16.10;63.47
64967;BME280;51710;38.732;-121.358;2023-05-07T02:46:15;101360.84;;;15.98;63.84
64967;BME280;51710;38.732;-121.358;2023-05-07T02:48:41;101366.56;;;15.95;63.65
64967;BME280;51710;38.732;-121.358;2023-05-07T02:51:08;101365.94;;;15.85;64.16
64967;BME280;51710;38.732;-121.358;2023-05-07T02:53:34;101381.09;;;15.77;64.20
64967;BME280;51710;38.732;-121.358;2023-05-07T02:56:01;101372.72;;;15.72;65.04
64967;BME280;51710;38.732;-121.358;2023-05-07T02:58:28;101380.44;;;15.67;64.96
64967;BME280;51710;38.732;-121.358;2023-05-07T03:00:54;101377.78;;;15.59;65.14
64967;BME280;51710;38.732;-121.358;2023-05-07T03:03:20;101382.00;;;15.54;64.99
64967;BME280;51710;38.732;-121.358;2023-05-07T03:05:47;101382.53;;;15.49;65.22
64967;BME280;51710;38.732;-121.358;2023-05-07T03:08:13;101380.84;;;15.48;65.48
64967;BME280;51710;38.732;-121.358;2023-05-07T03:10:39;101373.31;;;15.44;65.78
64967;BME280;51710;38.732;-121.358;2023-05-07T03:13:05;101378.19;;;15.40;66.22
64967;BME280;51710;38.732;-121.358;2023-05-07T03:15:32;101377.84;;;15.35;66.05
64967;BME280;51710;38.732;-121.358;2023-05-07T03:17:58;101383.72;;;15.31;66.17
64967;BME280;51710;38.732;-121.358;2023-05-07T03:20:24;101386.91;;;15.26;66.32
64967;BME280;51710;38.732;-121.358;2023-05-07T03:22:50;101400.50;;;15.25;66.72
64967;BME280;51710;38.732;-121.358;2023-05-07T03:25:17;101396.66;;;15.19;66.95
64967;BME280;51710;38.732;-121.358;2023-05-07T03:27:43;101394.50;;;15.15;67.11
64967;BME280;51710;38.732;-121.358;2023-05-07T03:30:10;101405.06;;;15.08;67.25
64967;BME280;51710;38.732;-121.358;2023-05-07T03:32:36;101407.09;;;15.06;67.22
64967;BME280;51710;38.732;-121.358;2023-05-07T03:35:03;101406.72;;;15.01;67.38
64967;BME280;51710;38.732;-121.358;2023-05-07T03:37:29;101410.44;;;14.92;67.88
64967;BME280;51710;38.732;-121.358;2023-05-07T03:39:55;101405.06;;;14.84;67.39
64967;BME280;51710;38.732;-121.358;2023-05-07T03:42:22;101403.41;;;14.83;67.67
64967;BME280;51710;38.732;-121.358;2023-05-07T03:44:48;101401.06;;;14.80;67.80
64967;BME280;51710;38.732;-121.358;2023-05-07T03:47:14;101398.03;;;14.75;67.83
64967;BME280;51710;38.732;-121.358;2023-05-07T03:49:41;101400.38;;;14.70;67.90
64967;BME280;51710;38.732;-121.358;2023-05-07T03:52:07;101407.09;;;14.66;68.33
64967;BME280;51710;38.732;-121.358;2023-05-07T03:54:33;101395.53;;;14.65;68.05
64967;BME280;51710;38.732;-121.358;2023-05-07T03:56:59;101408.09;;;14.65;68.44
64967;BME280;51710;38.732;-121.358;2023-05-07T03:59:26;101402.72;;;14.65;68.42
64967;BME280;51710;38.732;-121.358;2023-05-07T04:01:52;101408.09;;;14.65;68.46
64967;BME280;51710;38.732;-121.358;2023-05-07T04:04:18;101419.66;;;14.65;68.39
64967;BME280;51710;38.732;-121.358;2023-05-07T04:06:44;101425.03;;;14.65;68.65
64967;BME280;51710;38.732;-121.358;2023-05-07T04:09:10;101424.16;;;14.65;68.89
64967;BME280;51710;38.732;-121.358;2023-05-07T04:11:37;101424.34;;;14.63;68.87
64967;BME280;51710;38.732;-121.358;2023-05-07T04:14:03;101424.16;;;14.65;69.14
64967;BME280;51710;38.732;-121.358;2023-05-07T04:16:30;101434.56;;;14.60;69.39
64967;BME280;51710;38.732;-121.358;2023-05-07T04:18:56;101432.53;;;14.54;69.13
64967;BME280;51710;38.732;-121.358;2023-05-07T04:21:22;101433.88;;;14.50;69.12
64967;BME280;51710;38.732;-121.358;2023-05-07T04:23:49;101435.53;;;14.51;69.33
64967;BME280;51710;38.732;-121.358;2023-05-07T04:26:15;101434.06;;;14.48;69.00
64967;BME280;51710;38.732;-121.358;2023-05-07T04:28:42;101429.16;;;14.44;69.34
64967;BME280;51710;38.732;-121.358;2023-05-07T04:31:08;101434.00;;;14.40;69.09
64967;BME280;51710;38.732;-121.358;2023-05-07T04:33:34;101425.47;;;14.37;69.28
64967;BME280;51710;38.732;-121.358;2023-05-07T04:36:04;101434.00;;;14.32;69.43
64967;BME280;51710;38.732;-121.358;2023-05-07T04:38:30;101432.81;;;14.27;69.60
64967;BME280;51710;38.732;-121.358;2023-05-07T04:41:08;101432.94;;;14.25;69.92
64967;BME280;51710;38.732;-121.358;2023-05-07T04:43:34;101440.84;;;14.27;69.92
64967;BME280;51710;38.732;-121.358;2023-05-07T04:46:00;101446.22;;;14.27;70.07
64967;BME280;51710;38.732;-121.358;2023-05-07T04:48:27;101448.19;;;14.25;69.85
64967;BME280;51710;38.732;-121.358;2023-05-07T04:50:54;101444.56;;;14.26;70.01
64967;BME280;51710;38.732;-121.358;2023-05-07T04:53:20;101443.66;;;14.25;70.05
64967;BME280;51710;38.732;-121.358;2023-05-07T04:55:47;101446.50;;;14.24;69.84
64967;BME280;51710;38.732;-121.358;2023-05-07T04:58:13;101445.84;;;14.22;70.05
64967;BME280;51710;38.732;-121.358;2023-05-07T05:00:40;101452.34;;;14.19;70.00
64967;BME280;51710;38.732;-121.358;2023-05-07T05:03:06;101454.38;;;14.17;70.41
64967;BME280;51710;38.732;-121.358;2023-05-07T05:05:33;101456.19;;;14.17;70.39
64967;BME280;51710;38.732;-121.358;2023-05-07T05:07:59;101459.22;;;14.14;70.65
64967;BME280;51710;38.732;-121.358;2023-05-07T05:10:25;101455.16;;;14.10;71.02
64967;BME280;51710;38.732;-121.358;2023-05-07T05:12:52;101461.81;;;13.98;71.28
64967;BME280;51710;38.732;-121.358;2023-05-07T05:15:18;101470.47;;;13.84;71.94
64967;BME280;51710;38.732;-121.358;2023-05-07T05:17:44;101469.34;;;13.69;72.47
64967;BME280;51710;38.732;-121.358;2023-05-07T05:20:10;101470.00;;;13.63;72.78
64967;BME280;51710;38.732;-121.358;2023-05-07T05:22:37;101465.97;;;13.58;73.08
64967;BME280;51710;38.732;-121.358;2023-05-07T05:25:04;101476.66;;;13.58;73.13
64967;BME280;51710;38.732;-121.358;2023-05-07T05:27:30;101471.31;;;13.58;73.58
64967;BME280;51710;38.732;-121.358;2023-05-07T05:29:56;101474.66;;;13.61;73.41
64967;BME280;51710;38.732;-121.358;2023-05-07T05:32:23;101472.69;;;13.63;73.42
64967;BME280;51710;38.732;-121.358;2023-05-07T05:34:49;101466.16;;;13.65;73.45
64967;BME280;51710;38.732;-121.358;2023-05-07T05:37:15;101466.38;;;13.72;73.41
64967;BME280;51710;38.732;-121.358;2023-05-07T05:39:42;101470.41;;;13.76;73.41
64967;BME280;51710;38.732;-121.358;2023-05-07T05:42:08;101466.06;;;13.75;72.98
64967;BME280;51710;38.732;-121.358;2023-05-07T05:44:34;101465.53;;;13.71;73.26
64967;BME280;51710;38.732;-121.358;2023-05-07T05:47:00;101471.50;;;13.65;73.40
64967;BME280;51710;38.732;-121.358;2023-05-07T05:49:27;101465.97;;;13.58;73.59
64967;BME280;51710;38.732;-121.358;2023-05-07T05:51:53;101473.94;;;13.50;73.70
64967;BME280;51710;38.732;-121.358;2023-05-07T05:54:19;101465.84;;;13.42;73.86
64967;BME280;51710;38.732;-121.358;2023-05-07T05:56:45;101471.84;;;13.36;73.97
64967;BME280;51710;38.732;-121.358;2023-05-07T05:59:12;101463.13;;;13.34;74.11
64967;BME280;51710;38.732;-121.358;2023-05-07T06:01:38;101465.13;;;13.32;74.15
64967;BME280;51710;38.732;-121.358;2023-05-07T06:04:05;101466.13;;;13.31;74.48
64967;BME280;51710;38.732;-121.358;2023-05-07T06:06:31;101465.75;;;13.26;74.37
64967;BME280;51710;38.732;-121.358;2023-05-07T06:08:58;101469.22;;;13.19;74.88
64967;BME280;51710;38.732;-121.358;2023-05-07T06:11:24;101469.00;;;13.12;75.06
64967;BME280;51710;38.732;-121.358;2023-05-07T06:13:51;101469.28;;;13.09;75.19
64967;BME280;51710;38.732;-121.358;2023-05-07T06:16:17;101473.81;;;13.09;75.43
64967;BME280;51710;38.732;-121.358;2023-05-07T06:18:43;101473.81;;;13.09;75.50
64967;BME280;51710;38.732;-121.358;2023-05-07T06:21:13;101471.97;;;13.09;75.30
64967;BME280;51710;38.732;-121.358;2023-05-07T06:23:39;101470.97;;;13.10;75.53
64967;BME280;51710;38.732;-121.358;2023-05-07T06:26:06;101473.50;;;13.12;75.64
64967;BME280;51710;38.732;-121.358;2023-05-07T06:28:33;101483.34;;;13.11;75.55
64967;BME280;51710;38.732;-121.358;2023-05-07T06:31:15;101473.66;;;13.10;75.50
64967;BME280;51710;38.732;-121.358;2023-05-07T06:33:43;101483.66;;;13.08;75.64
64967;BME280;51710;38.732;-121.358;2023-05-07T06:36:10;101489.47;;;13.04;75.65
64967;BME280;51710;38.732;-121.358;2023-05-07T06:38:36;101491.59;;;13.00;75.91
64967;BME280;51710;38.732;-121.358;2023-05-07T06:41:02;101488.91;;;13.00;76.08
64967;BME280;51710;38.732;-121.358;2023-05-07T06:43:28;101495.25;;;12.99;75.88
64967;BME280;51710;38.732;-121.358;2023-05-07T06:45:55;101499.78;;;12.99;75.88
64967;BME280;51710;38.732;-121.358;2023-05-07T06:48:21;101491.06;;;12.97;75.90
64967;BME280;51710;38.732;-121.358;2023-05-07T06:50:47;101498.38;;;12.95;76.43
64967;BME280;51710;38.732;-121.358;2023-05-07T06:53:13;101491.34;;;12.94;76.06
64967;BME280;51710;38.732;-121.358;2023-05-07T06:55:39;101500.69;;;12.90;76.14
64967;BME280;51710;38.732;-121.358;2023-05-07T06:58:07;101495.94;;;12.84;75.92
64967;BME280;51710;38.732;-121.358;2023-05-07T07:00:33;101492.88;;;12.79;75.89
64967;BME280;51710;38.732;-121.358;2023-05-07T07:03:00;101503.72;;;12.77;76.24
64967;BME280;51710;38.732;-121.358;2023-05-07T07:05:26;101501.91;;;12.78;76.37
64967;BME280;51710;38.732;-121.358;2023-05-07T07:07:53;101506.41;;;12.77;76.42
64967;BME280;51710;38.732;-121.358;2023-05-07T07:10:22;101506.41;;;12.77;76.77
64967;BME280;51710;38.732;-121.358;2023-05-07T07:12:49;101513.72;;;12.75;76.53
64967;BME280;51710;38.732;-121.358;2023-05-07T07:15:15;101498.00;;;12.72;76.87
64967;BME280;51710;38.732;-121.358;2023-05-07T07:17:42;101507.00;;;12.71;76.66
64967;BME280;51710;38.732;-121.358;2023-05-07T07:20:09;101503.50;;;12.71;76.77
64967;BME280;51710;38.732;-121.358;2023-05-07T07:22:35;101498.97;;;12.71;76.87
64967;BME280;51710;38.732;-121.358;2023-05-07T07:25:01;101500.28;;;12.67;76.79
64967;BME280;51710;38.732;-121.358;2023-05-07T07:27:27;101510.44;;;12.64;77.24
64967;BME280;51710;38.732;-121.358;2023-05-07T07:29:54;101503.41;;;12.63;77.01
64967;BME280;51710;38.732;-121.358;2023-05-07T07:32:20;101504.56;;;12.60;76.65
64967;BME280;51710;38.732;-121.358;2023-05-07T07:34:46;101502.16;;;12.57;76.73
64967;BME280;51710;38.732;-121.358;2023-05-07T07:37:12;101500.50;;;12.56;76.83
64967;BME280;51710;38.732;-121.358;2023-05-07T07:39:38;101503.88;;;12.58;76.76
64967;BME280;51710;38.732;-121.358;2023-05-07T07:42:05;101499.50;;;12.57;76.62
64967;BME280;51710;38.732;-121.358;2023-05-07T07:44:31;101498.00;;;12.55;76.51
64967;BME280;51710;38.732;-121.358;2023-05-07T07:46:57;101506.84;;;12.55;76.38
64967;BME280;51710;38.732;-121.358;2023-05-07T07:49:23;101500.81;;;12.53;76.60
64967;BME280;51710;38.732;-121.358;2023-05-07T07:51:49;101505.16;;;12.54;76.62
64967;BME280;51710;38.732;-121.358;2023-05-07T07:54:16;101500.50;;;12.56;76.52
64967;BME280;51710;38.732;-121.358;2023-05-07T07:56:43;101500.50;;;12.56;76.58
64967;BME280;51710;38.732;-121.358;2023-05-07T07:59:09;101503.03;;;12.58;76.53
64967;BME280;51710;38.732;-121.358;2023-05-07T08:01:35;101509.38;;;12.57;76.75
64967;BME280;51710;38.732;-121.358;2023-05-07T08:04:02;101505.16;;;12.54;76.64
64967;BME280;51710;38.732;-121.358;2023-05-07T08:06:29;101501.09;;;12.50;76.79
64967;BME280;51710;38.732;-121.358;2023-05-07T08:08:55;101505.78;;;12.48;76.55
64967;BME280;51710;38.732;-121.358;2023-05-07T08:11:24;101504.22;;;12.45;77.06
64967;BME280;51710;38.732;-121.358;2023-05-07T08:13:51;101506.03;;;12.45;77.34
64967;BME280;51710;38.732;-121.358;2023-05-07T08:16:18;101507.06;;;12.44;77.11
64967;BME280;51710;38.732;-121.358;2023-05-07T08:18:44;101506.91;;;12.45;77.72
64967;BME280;51710;38.732;-121.358;2023-05-07T08:21:10;101503.22;;;12.46;76.92
64967;BME280;51710;38.732;-121.358;2023-05-07T08:23:37;101495.09;;;12.48;77.44
64967;BME280;51710;38.732;-121.358;2023-05-07T08:26:03;101501.41;;;12.47;77.08
64967;BME280;51710;38.732;-121.358;2023-05-07T08:28:29;101501.56;;;12.45;77.29
64967;BME280;51710;38.732;-121.358;2023-05-07T08:30:55;101494.81;;;12.41;77.29
64967;BME280;51710;38.732;-121.358;2023-05-07T08:33:26;101494.16;;;12.39;77.40
64967;BME280;51710;38.732;-121.358;2023-05-07T08:35:53;101494.28;;;12.38;77.51
64967;BME280;51710;38.732;-121.358;2023-05-07T08:38:19;101488.28;;;12.36;77.65
64967;BME280;51710;38.732;-121.358;2023-05-07T08:40:45;101487.56;;;12.34;78.00
64967;BME280;51710;38.732;-121.358;2023-05-07T08:43:13;101483.38;;;12.31;77.63
64967;BME280;51710;38.732;-121.358;2023-05-07T08:45:40;101488.00;;;12.29;77.84
64967;BME280;51710;38.732;-121.358;2023-05-07T08:48:15;101481.97;;;12.27;77.91
64967;BME280;51710;38.732;-121.358;2023-05-07T08:50:42;101489.31;;;12.25;77.70
64967;BME280;51710;38.732;-121.358;2023-05-07T08:53:08;101482.59;;;12.21;77.95
64967;BME280;51710;38.732;-121.358;2023-05-07T08:55:34;101484.56;;;12.19;77.74
64967;BME280;51710;38.732;-121.358;2023-05-07T08:58:00;101487.53;;;12.16;77.65
64967;BME280;51710;38.732;-121.358;2023-05-07T09:00:27;101478.97;;;12.13;77.61
64967;BME280;51710;38.732;-121.358;2023-05-07T09:02:53;101481.81;;;12.11;77.88
64967;BME280;51710;38.732;-121.358;2023-05-07T09:05:20;101487.16;;;12.11;78.10
64967;BME280;51710;38.732;-121.358;2023-05-07T09:07:47;101485.28;;;12.12;77.89
64967;BME280;51710;38.732;-121.358;2023-05-07T09:10:13;101484.31;;;12.13;78.07
64967;BME280;51710;38.732;-121.358;2023-05-07T09:12:39;101484.31;;;12.13;77.79
64967;BME280;51710;38.732;-121.358;2023-05-07T09:15:07;101490.47;;;12.13;78.30
64967;BME280;51710;38.732;-121.358;2023-05-07T09:17:33;101488.66;;;12.14;78.21
64967;BME280;51710;38.732;-121.358;2023-05-07T09:20:04;101485.13;;;12.13;78.13
64967;BME280;51710;38.732;-121.358;2023-05-07T09:22:35;101474.47;;;12.13;78.20
64967;BME280;51710;38.732;-121.358;2023-05-07T09:25:02;101473.63;;;12.13;77.95
64967;BME280;51710;38.732;-121.358;2023-05-07T09:27:29;101477.28;;;12.12;77.84
64967;BME280;51710;38.732;-121.358;2023-05-07T09:29:56;101481.25;;;12.08;78.23
64967;BME280;51710;38.732;-121.358;2023-05-07T09:32:22;101473.69;;;12.03;78.07
64967;BME280;51710;38.732;-121.358;2023-05-07T09:34:48;101473.28;;;11.98;78.39
64967;BME280;51710;38.732;-121.358;2023-05-07T09:37:15;101469.09;;;11.96;78.65
64967;BME280;51710;38.732;-121.358;2023-05-07T09:39:47;101462.91;;;11.95;78.74
64967;BME280;51710;38.732;-121.358;2023-05-07T09:42:13;101471.22;;;11.92;78.35
64967;BME280;51710;38.732;-121.358;2023-05-07T09:44:47;101472.34;;;11.90;78.45
64967;BME280;51710;38.732;-121.358;2023-05-07T09:47:19;101472.66;;;11.87;78.74
64967;BME280;51710;38.732;-121.358;2023-05-07T09:49:47;101477.13;;;11.86;78.88
64967;BME280;51710;38.732;-121.358;2023-05-07T09:52:14;101469.28;;;11.85;78.67
64967;BME280;51710;38.732;-121.358;2023-05-07T09:54:41;101471.94;;;11.85;78.61
64967;BME280;51710;38.732;-121.358;2023-05-07T09:57:11;101475.88;;;11.81;78.99
64967;BME280;51710;38.732;-121.358;2023-05-07T09:59:38;101478.84;;;11.78;78.80
64967;BME280;51710;38.732;-121.358;2023-05-07T10:02:05;101493.19;;;11.77;78.84
64967;BME280;51710;38.732;-121.358;2023-05-07T10:04:32;101492.03;;;11.79;79.25
64967;BME280;51710;38.732;-121.358;2023-05-07T10:07:00;101486.56;;;11.81;78.86
64967;BME280;51710;38.732;-121.358;2023-05-07T10:09:26;101492.75;;;11.81;78.99
64967;BME280;51710;38.732;-121.358;2023-05-07T10:11:54;101489.53;;;11.78;78.57
64967;BME280;51710;38.732;-121.358;2023-05-07T10:14:21;101488.97;;;11.74;79.29
64967;BME280;51710;38.732;-121.358;2023-05-07T10:16:48;101486.47;;;11.73;78.94
64967;BME280;51710;38.732;-121.358;2023-05-07T10:19:14;101482.94;;;11.72;78.98
64967;BME280;51710;38.732;-121.358;2023-05-07T10:21:48;101498.69;;;11.66;78.79
64967;BME280;51710;38.732;-121.358;2023-05-07T10:24:21;101493.63;;;11.63;78.86
64967;BME280;51710;38.732;-121.358;2023-05-07T10:26:50;101489.56;;;11.59;79.38
64967;BME280;51710;38.732;-121.358;2023-05-07T10:35:01;101488.00;;;11.56;79.03
64967;BME280;51710;38.732;-121.358;2023-05-07T10:37:28;101484.78;;;11.53;79.27
64967;BME280;51710;38.732;-121.358;2023-05-07T10:39:55;101487.59;;;11.51;79.19
64967;BME280;51710;38.732;-121.358;2023-05-07T10:42:21;101489.31;;;11.52;79.34
64967;BME280;51710;38.732;-121.358;2023-05-07T10:44:47;101493.78;;;11.52;78.97
64967;BME280;51710;38.732;-121.358;2023-05-07T10:47:15;101486.50;;;11.54;79.70
64967;BME280;51710;38.732;-121.358;2023-05-07T10:52:24;101481.41;;;11.51;79.41
64967;BME280;51710;38.732;-121.358;2023-05-07T10:57:43;101477.94;;;11.41;79.84
64967;BME280;51710;38.732;-121.358;2023-05-07T11:05:32;101486.00;;;11.12;79.82
64967;BME280;51710;38.732;-121.358;2023-05-07T11:08:03;101476.91;;;11.05;80.78
64967;BME280;51710;38.732;-121.358;2023-05-07T11:10:55;101475.63;;;10.99;80.36
64967;BME280;51710;38.732;-121.358;2023-05-07T11:13:45;101477.44;;;10.99;80.77
64967;BME280;51710;38.732;-121.358;2023-05-07T11:16:19;101476.19;;;11.03;80.92
64967;BME280;51710;38.732;-121.358;2023-05-07T11:18:48;101481.09;;;11.07;80.79
64967;BME280;51710;38.732;-121.358;2023-05-07T11:24:01;101484.88;;;11.14;80.54
64967;BME280;51710;38.732;-121.358;2023-05-07T11:26:30;101485.56;;;11.16;80.78
64967;BME280;51710;38.732;-121.358;2023-05-07T11:28:57;101482.75;;;11.18;80.77
64967;BME280;51710;38.732;-121.358;2023-05-07T11:31:27;101475.47;;;11.20;81.29
64967;BME280;51710;38.732;-121.358;2023-05-07T11:33:54;101477.03;;;11.22;80.80
64967;BME280;51710;38.732;-121.358;2023-05-07T11:36:22;101480.50;;;11.23;81.11
64967;BME280;51710;38.732;-121.358;2023-05-07T11:38:49;101474.34;;;11.22;80.70
64967;BME280;51710;38.732;-121.358;2023-05-07T11:41:16;101471.53;;;11.14;80.52
64967;BME280;51710;38.732;-121.358;2023-05-07T11:43:59;101470.31;;;10.99;79.96
64967;BME280;51710;38.732;-121.358;2023-05-07T11:46:27;101478.44;;;10.88;80.44
64967;BME280;51710;38.732;-121.358;2023-05-07T11:48:54;101480.69;;;10.83;80.89
64967;BME280;51710;38.732;-121.358;2023-05-07T11:51:22;101482.63;;;10.81;81.48
64967;BME280;51710;38.732;-121.358;2023-05-07T11:53:49;101472.53;;;10.85;81.53
64967;BME280;51710;38.732;-121.358;2023-05-07T11:56:17;101469.19;;;10.92;81.75
64967;BME280;51710;38.732;-121.358;2023-05-07T11:58:45;101461.47;;;10.99;81.98
64967;BME280;51710;38.732;-121.358;2023-05-07T12:01:13;101460.19;;;11.03;81.15
64967;BME280;51710;38.732;-121.358;2023-05-07T12:03:41;101453.72;;;11.05;81.47
64967;BME280;51710;38.732;-121.358;2023-05-07T12:06:09;101457.81;;;11.09;81.49
64967;BME280;51710;38.732;-121.358;2023-05-07T12:08:40;101456.69;;;11.12;81.72
64967;BME280;51710;38.732;-121.358;2023-05-07T12:11:08;101452.88;;;11.14;81.60
64967;BME280;51710;38.732;-121.358;2023-05-07T12:13:35;101446.72;;;11.14;81.16
64967;BME280;51710;38.732;-121.358;2023-05-07T12:16:02;101452.88;;;11.14;81.33
64967;BME280;51710;38.732;-121.358;2023-05-07T12:18:30;101449.25;;;11.15;81.37
64967;BME280;51710;38.732;-121.358;2023-05-07T12:20:57;101447.28;;;11.17;81.40
64967;BME280;51710;38.732;-121.358;2023-05-07T12:23:25;101447.13;;;11.19;81.51
64967;BME280;51710;38.732;-121.358;2023-05-07T12:25:51;101444.63;;;11.17;81.23
64967;BME280;51710;38.732;-121.358;2023-05-07T12:28:18;101455.00;;;11.20;81.33
64967;BME280;51710;38.732;-121.358;2023-05-07T12:30:47;101455.13;;;11.19;81.28
64967;BME280;51710;38.732;-121.358;2023-05-07T12:33:18;101458.63;;;11.19;81.23
64967;BME280;51710;38.732;-121.358;2023-05-07T12:35:47;101452.16;;;11.22;81.39
64967;BME280;51710;38.732;-121.358;2023-05-07T12:38:16;101455.69;;;11.22;81.41
64967;BME280;51710;38.732;-121.358;2023-05-07T12:40:44;101455.69;;;11.22;81.81